Pacific Biosciences Of Calif (PACB) Latest Bloomsberg Price


Mffais Ranking #345 Overall / #2 Industry
Industry: Life Science Equipment

Number of Companies: 99 (Ranking #1650 Overall/#20 Industry)
Inflow: $ 45,796 (K) (Ranking #1355 Overall/#16 Industry)
Outflow: $ -24,211 (K)
Mffais Flow: $ 21,585 (K) (Ranking #345 Overall/#2 Industry)


Receive a FREE weekly executive review of stocks moving into the top 10, taking the top industy spot or moving up within their industry. Sent directly to your Inbox every Saturday. Sign up today and get last week's review immediately sent to you.

We value and respect your privacy. Please read our Terms and Conditions which states our firm commitment to your privacy. Your email address will not be shared with a third party, nor will it be sold or used for purposes other than subscription for the weekly review.

Owner CPOR Shares Action Qty Chg Invested (K) Total Current Value (K)
Oracle Investment Management Inc 2016-09-30 4,998,566 Added More 1,816,297 $ 14,276 $ 39,288
Raging Capital Management Llc 2016-09-30 2,818,004 Added More 1,073,108 $ 8,434 $ 22,149
Ghost Tree Capital Llc 2016-09-30 750,000 New Holding 750,000 $ 5,895 $ 5,895
Arrowpoint Asset Management Llc 2016-09-30 934,960 Added More 607,552 $ 4,775 $ 7,348
Thrax Management Llc 2016-09-30 410,876 New Holding 410,876 $ 3,229 $ 3,229
Lombard Odier Asset Management Usa Corp 2016-09-30 400,000 Added More 260,100 $ 2,044 $ 3,144
Lord Abbett Co Llc 2016-09-30 6,394,364 Added More 227,271 $ 1,786 $ 50,259
Kennedy Capital Management Inc 2016-09-30 128,081 New Holding 128,081 $ 1,006 $ 1,006
Mutual Of America Capital Management Llc 2016-09-30 568,216 Added More 109,948 $ 864 $ 4,466
Gilder Gagnon Howe Co Llc 2016-09-30 3,235,946 Added More 64,408 $ 506 $ 25,434
Sg Americas Securities Llc 2016-09-30 79,443 Added More 62,773 $ 493 $ 624
Northern Trust Corp 2016-09-30 933,424 Added More 42,464 $ 333 $ 7,336
Trexquant Investment Lp 2016-09-30 37,342 New Holding 37,342 $ 293 $ 293
Quantitative Investment Management Llc 2016-09-30 34,600 New Holding 34,600 $ 271 $ 271
Airain Ltd 2016-09-30 34,400 New Holding 34,400 $ 270 $ 270
Bradley Foster Sargent Inc Ct 2016-09-30 25,000 New Holding 25,000 $ 196 $ 196
Blackrock Investment Management Llc 2016-09-30 411,272 Added More 15,232 $ 119 $ 3,232
Geduld E E 2016-09-30 45,000 Added More 15,000 $ 117 $ 353
Bayesian Capital Management Lp 2016-09-30 31,510 Added More 14,710 $ 115 $ 247
Squarepoint Ops Llc 2016-09-30 13,097 New Holding 13,097 $ 102 $ 102
Quantitative Systematic Strategies Llc 2016-09-30 11,973 New Holding 11,973 $ 94 $ 94
Blackrock Inc 2016-09-30 146,412 Added More 11,910 $ 93 $ 1,150
California State Teachers Retirement System 2016-09-30 169,994 Added More 10,200 $ 80 $ 1,336
Ifp Advisors Inc 2016-09-30 132,547 Added More 9,550 $ 75 $ 1,041
New York State Common Retirement Fund 2016-09-30 84,900 Added More 6,100 $ 47 $ 667
Edmond De Rothschild Holding S A 2016-09-30 5,560 New Holding 5,560 $ 43 $ 43
Edmond De Rothschild Suisse S A 2016-09-30 5,560 New Holding 5,560 $ 43 $ 43
Pacad Investment Ltd 2016-09-30 5,200 New Holding 5,200 $ 40 $ 40
Bourne Lent Asset Management Inc 2016-09-30 180,550 Added More 4,200 $ 33 $ 1,419
Rhumbline Advisers 2016-09-30 92,654 Added More 3,819 $ 30 $ 728
Creative Planning 2016-09-30 13,133 Added More 3,533 $ 27 $ 103
Compagnie Lombard Odier Scma 2016-09-30 135,000 Added More 3,000 $ 23 $ 1,061
Nisa Investment Advisors Llc 2016-09-30 1,700 New Holding 1,700 $ 13 $ 13
Nationwide Fund Advisors 2016-09-30 50,820 Added More 1,063 $ 8 $ 399
Zurcher Kantonalbank Zurich Cantonalbank 2016-09-30 2,957 Added More 691 $ 5 $ 23
Aperio Group Llc 2016-09-30 27,472 Added More 171 $ 1 $ 215
American International Group Inc 2016-09-30 43,935 Added More 67 $ 0 $ 345
Qs Investors Llc 2016-09-30 51 Added More 15 $ 0 $ 0
Swiss National Bank 2016-09-30 138,646 No Change 0 $ 0 $ 1,089
Us Bancorp De 2016-09-30 2,025 No Change 0 $ 0 $ 15
Ardsley Advisory Partners 2016-09-30 15,000 No Change 0 $ 0 $ 117
Oberweis Asset Management Inc 2016-09-30 13,600 No Change 0 $ 0 $ 106
Teachers Advisors Inc 2016-09-30 817,791 No Change 0 $ 0 $ 6,427
Ladenburg Thalmann Financial Services Inc 2016-09-30 700 No Change 0 $ 0 $ 5
Trellus Management Company Llc 2016-09-30 225,000 No Change 0 $ 0 $ 1,768
Blackstone Group L P 2016-09-30 2,411,556 No Change 0 $ 0 $ 18,954
Biondo Investment Advisors Llc 2016-09-30 19,500 No Change 0 $ 0 $ 153
Dekabank Deutsche Girozentrale 2016-09-30 48,000 No Change 0 $ 0 $ 377
Horizon Kinetics Llc 2016-09-30 12,000 No Change 0 $ 0 $ 94
Birchview Capital Lp 2016-09-30 27,000 No Change 0 $ 0 $ 212
Johanson Financial Advisors Inc 2016-09-30 12,510 No Change 0 $ 0 $ 98
Jane Street Group Llc 2016-09-30 10,100 Sold Some -100 $ -0 $ 79
Meeder Asset Management Inc 2016-09-30 0 Sold All -176 $ -1 $ 0
Mufg Americas Holdings Corp 2016-09-30 0 Sold All -329 $ -2 $ 0
Pnc Financial Services Group Inc 2016-09-30 0 Sold All -380 $ -2 $ 0
Smithfield Trust Co 2016-09-30 4,862 Sold Some -486 $ -3 $ 38
Legal General Group Plc 2016-09-30 9,635 Sold Some -653 $ -5 $ 75
First American Bank 2016-09-30 26,720 Sold Some -700 $ -5 $ 210
Essex Investment Management Co Llc 2016-09-30 45,824 Sold Some -1,075 $ -8 $ 360
Wfg Advisors Lp 2016-09-30 4,144 Sold Some -1,328 $ -10 $ 32
Spot Trading L L C 2016-09-30 115,817 Sold Some -4,950 $ -38 $ 910
Axa 2016-09-30 165,900 Sold Some -6,400 $ -50 $ 1,303
Dynamic Technology Lab Private Ltd 2016-09-30 20,991 Sold Some -8,006 $ -62 $ 164
Proshare Advisors Llc 2016-09-30 65,807 Sold Some -8,399 $ -66 $ 517
Tower Research Capital Llc Trc 2016-09-30 281 Sold Some -8,883 $ -69 $ 2
Teacher Retirement System Of Texas 2016-09-30 0 Sold All -10,434 $ -82 $ 0
Walleye Trading Llc 2016-09-30 28,476 Sold Some -11,100 $ -87 $ 223
Fuller Thaler Asset Management Inc 2016-09-30 388,739 Sold Some -11,900 $ -93 $ 3,055
Boothbay Fund Management Llc 2016-09-30 0 Sold All -13,080 $ -102 $ 0
Simplex Trading Llc 2016-09-30 29,302 Sold Some -14,057 $ -110 $ 230
Commerzbank Aktiengesellschaft Fi 2016-09-30 193,825 Sold Some -14,428 $ -113 $ 1,523
Stevens Capital Management Lp 2016-09-30 0 Sold All -14,801 $ -116 $ 0
Verition Fund Management Llc 2016-09-30 0 Sold All -15,000 $ -117 $ 0
Fox Run Management L L C 2016-09-30 0 Sold All -15,000 $ -117 $ 0
First Allied Advisory Services Inc 2016-09-30 0 Sold All -16,669 $ -131 $ 0
Highbridge Capital Management Llc 2016-09-30 0 Sold All -17,408 $ -136 $ 0
Strs Ohio 2016-09-30 0 Sold All -18,200 $ -143 $ 0
Capstone Investment Advisors Llc 2016-09-30 0 Sold All -18,500 $ -145 $ 0
Group One Trading L P 2016-09-30 120,040 Sold Some -20,061 $ -157 $ 943
Weiss Multi-Strategy Advisers Llc 2016-09-30 107,000 Sold Some -25,995 $ -204 $ 841
Cutler Group Lp 2016-09-30 178,387 Sold Some -26,600 $ -209 $ 1,402
Parametric Portfolio Associates Llc 2016-09-30 131,022 Sold Some -27,121 $ -213 $ 1,029
Ing Groep Nv 2016-09-30 43,500 Sold Some -32,520 $ -255 $ 341
Tudor Investment Corp Et Al 2016-09-30 0 Sold All -32,921 $ -258 $ 0
Gsa Capital Partners Llp 2016-09-30 0 Sold All -41,800 $ -328 $ 0
Schonfeld Strategic Advisors Llc 2016-09-30 0 Sold All -41,859 $ -329 $ 0
Blair William Co Il 2016-09-30 0 Sold All -44,000 $ -345 $ 0
Emerald Acquisition Ltd 2016-09-30 0 Sold All -61,404 $ -482 $ 0
Deerfield Management Co 2016-09-30 0 Sold All -63,072 $ -495 $ 0
Sabal Capital Management Llc 2016-09-30 0 Sold All -64,700 $ -508 $ 0
Capital Fund Management S A 2016-09-30 0 Sold All -74,800 $ -587 $ 0
Kcg Holdings Inc 2016-09-30 24,199 Sold Some -78,634 $ -618 $ 190
J Goldman Co Lp 2016-09-30 0 Sold All -97,600 $ -767 $ 0
Her Majesty The Queen In Right Of The Province Of Alberta As 2016-09-30 0 Sold All -99,100 $ -778 $ 0
Panagora Asset Management Inc 2016-09-30 558,406 Sold Some -118,495 $ -931 $ 4,389
Bridger Management Llc 2016-09-30 4,964,123 Sold Some -218,116 $ -1,714 $ 39,018
Sg Capital Management Llc 2016-09-30 0 Sold All -264,669 $ -2,080 $ 0
Acuta Capital Partners Llc 2016-09-30 0 Sold All -300,000 $ -2,358 $ 0
Consonance Capital Management Lp 2016-09-30 0 Sold All -1,114,448 $ -8,759 $ 0